Time,TemperatureF,DewpointF,PressureIn,WindDirection,WindDirectionDegrees,WindSpeedMPH,WindSpeedGustMPH,Humidity,HourlyPrecipIn,Conditions,Clouds,dailyrainin,SolarRadiationWatts/m^2,SoftwareType,DateUTC
2013-05-01 00:02:00,66.0,50.0,-100.00,SE,128,14.0,24.0,56,0.00,,,-99.99,0.000000,,2013-05-01 05:02:00,
2013-05-01 00:32:00,65.0,51.0,-100.00,SE,131,12.0,21.0,61,0.00,,,-99.99,0.000000,,2013-05-01 05:32:00,
2013-05-01 00:42:00,65.0,51.0,-100.00,SE,131,12.0,21.0,61,0.00,,,-99.99,0.000000,,2013-05-01 05:42:00,
2013-05-01 00:52:00,65.0,51.0,-100.00,SE,131,12.0,21.0,61,0.00,,,-99.99,0.000000,,2013-05-01 05:52:00,
2013-05-01 01:02:00,65.0,51.0,-100.00,SE,131,12.0,21.0,61,0.00,,,-99.99,0.000000,,2013-05-01 06:02:00,
2013-05-01 01:32:00,64.0,52.0,-100.00,SE,139,9.0,19.0,66,0.00,,,-99.99,0.000000,,2013-05-01 06:32:00,
2013-05-01 01:42:00,64.0,52.0,-100.00,SE,139,9.0,19.0,66,0.00,,,-99.99,0.000000,,2013-05-01 06:42:00,
2013-05-01 01:52:00,64.0,52.0,-100.00,SE,139,9.0,19.0,66,0.00,,,-99.99,0.000000,,2013-05-01 06:52:00,
2013-05-01 02:01:00,64.0,52.0,-100.00,SE,139,9.0,19.0,66,0.00,,,-99.99,0.000000,,2013-05-01 07:01:00,
2013-05-01 02:32:00,63.0,53.0,-100.00,SE,139,8.0,13.0,70,0.00,,,-99.99,0.000000,,2013-05-01 07:32:00,
2013-05-01 02:42:00,63.0,53.0,-100.00,SE,139,8.0,13.0,70,0.00,,,-99.99,0.000000,,2013-05-01 07:42:00,
2013-05-01 02:52:00,63.0,53.0,-100.00,SE,139,8.0,13.0,70,0.00,,,-99.99,0.000000,,2013-05-01 07:52:00,
2013-05-01 03:02:00,63.0,53.0,-100.00,SE,139,8.0,13.0,70,0.00,,,-99.99,0.000000,,2013-05-01 08:02:00,
2013-05-01 03:32:00,62.0,54.0,-100.00,SSE,150,7.0,13.0,75,0.00,,,0.00,0.000000,,2013-05-01 08:32:00,
2013-05-01 03:42:00,62.0,54.0,-100.00,SSE,150,7.0,13.0,75,0.00,,,0.00,0.000000,,2013-05-01 08:42:00,
2013-05-01 03:53:00,62.0,54.0,-100.00,SSE,150,7.0,13.0,75,0.00,,,0.00,0.000000,,2013-05-01 08:53:00,
2013-05-01 04:01:00,62.0,54.0,-100.00,SSE,150,7.0,13.0,75,0.00,,,0.00,0.000000,,2013-05-01 09:01:00,
2013-05-01 04:33:00,62.0,56.0,-100.00,SSE,156,5.0,13.0,81,0.00,,,-99.99,0.000000,,2013-05-01 09:33:00,
2013-05-01 04:43:00,62.0,56.0,-100.00,SSE,156,5.0,13.0,81,0.00,,,-99.99,0.000000,,2013-05-01 09:43:00,
2013-05-01 04:53:00,62.0,56.0,-100.00,SSE,156,5.0,13.0,81,0.00,,,-99.99,0.000000,,2013-05-01 09:53:00,
2013-05-01 05:02:00,62.0,56.0,-100.00,SSE,156,5.0,13.0,81,0.00,,,-99.99,0.000000,,2013-05-01 10:02:00,
2013-05-01 05:33:00,62.0,58.0,-100.00,SE,129,6.0,9.0,87,0.00,,,-99.99,0.000000,,2013-05-01 10:33:00,
2013-05-01 05:42:00,62.0,58.0,-100.00,SE,129,6.0,9.0,87,0.00,,,-99.99,0.000000,,2013-05-01 10:42:00,
2013-05-01 05:53:00,62.0,58.0,-100.00,SE,129,6.0,9.0,87,0.00,,,-99.99,0.000000,,2013-05-01 10:53:00,
2013-05-01 06:02:00,62.0,58.0,-100.00,SE,129,6.0,9.0,87,0.00,,,-99.99,0.000000,,2013-05-01 11:02:00,
2013-05-01 06:32:00,61.0,59.0,-100.00,ESE,123,5.0,12.0,92,0.00,,,-99.99,0.000000,,2013-05-01 11:32:00,
2013-05-01 06:42:00,61.0,59.0,-100.00,ESE,123,5.0,12.0,92,0.00,,,-99.99,0.000000,,2013-05-01 11:42:00,
2013-05-01 06:52:00,61.0,59.0,-100.00,ESE,123,5.0,12.0,92,0.00,,,-99.99,0.000000,,2013-05-01 11:52:00,
2013-05-01 07:01:00,61.0,59.0,-100.00,ESE,123,5.0,12.0,92,0.00,,,-99.99,0.000000,,2013-05-01 12:01:00,
2013-05-01 08:32:00,65.0,64.0,-100.00,SE,135,6.0,11.0,96,-99.99,,,-99.99,169.000000,,2013-05-01 13:32:00,
2013-05-01 08:42:00,65.0,64.0,-100.00,SE,135,6.0,11.0,96,-99.99,,,-99.99,169.000000,,2013-05-01 13:42:00,
2013-05-01 08:52:00,65.0,64.0,-100.00,SE,135,6.0,11.0,96,-99.99,,,-99.99,169.000000,,2013-05-01 13:52:00,
2013-05-01 09:02:00,65.0,64.0,-100.00,SE,135,6.0,11.0,96,-99.99,,,-99.99,169.000000,,2013-05-01 14:02:00,
2013-05-01 09:32:00,65.0,64.0,-100.00,SE,129,7.0,10.0,96,0.00,,,-99.99,236.000000,,2013-05-01 14:32:00,
2013-05-01 09:42:00,65.0,64.0,-100.00,SE,129,7.0,10.0,96,0.00,,,-99.99,236.000000,,2013-05-01 14:42:00,
2013-05-01 09:52:00,65.0,64.0,-100.00,SE,129,7.0,10.0,96,0.00,,,-99.99,236.000000,,2013-05-01 14:52:00,
2013-05-01 10:01:00,65.0,64.0,-100.00,SE,129,7.0,10.0,96,0.00,,,-99.99,236.000000,,2013-05-01 15:01:00,
2013-05-01 10:33:00,66.0,64.0,-100.00,SE,129,8.0,14.0,93,0.00,,,-99.99,502.000000,,2013-05-01 15:33:00,
2013-05-01 10:43:00,66.0,64.0,-100.00,SE,129,8.0,14.0,93,0.00,,,-99.99,502.000000,,2013-05-01 15:43:00,
2013-05-01 10:53:00,66.0,64.0,-100.00,SE,129,8.0,14.0,93,0.00,,,-99.99,502.000000,,2013-05-01 15:53:00,
2013-05-01 11:03:00,66.0,64.0,-100.00,SE,129,8.0,14.0,93,0.00,,,-99.99,502.000000,,2013-05-01 16:03:00,
2013-05-01 11:32:00,69.0,65.0,-100.00,SE,129,11.0,17.0,87,0.00,,,0.00,778.000000,,2013-05-01 16:32:00,
2013-05-01 11:42:00,69.0,65.0,-100.00,SE,129,11.0,17.0,87,0.00,,,0.00,778.000000,,2013-05-01 16:42:00,
2013-05-01 11:53:00,69.0,65.0,-100.00,SE,129,11.0,17.0,87,0.00,,,0.00,778.000000,,2013-05-01 16:53:00,
2013-05-01 12:02:00,69.0,65.0,-100.00,SE,129,11.0,17.0,87,0.00,,,0.00,778.000000,,2013-05-01 17:02:00,
2013-05-01 12:32:00,70.0,59.0,-100.00,SE,126,10.0,16.0,68,0.00,,,-99.99,1004.000000,,2013-05-01 17:32:00,
2013-05-01 12:42:00,70.0,59.0,-100.00,SE,126,10.0,16.0,68,0.00,,,-99.99,1004.000000,,2013-05-01 17:42:00,
2013-05-01 12:52:00,70.0,59.0,-100.00,SE,126,10.0,16.0,68,0.00,,,-99.99,1004.000000,,2013-05-01 17:52:00,
2013-05-01 13:01:00,70.0,59.0,-100.00,SE,126,10.0,16.0,68,0.00,,,-99.99,1004.000000,,2013-05-01 18:01:00,
2013-05-01 13:32:00,72.0,61.0,-100.00,SE,131,10.0,17.0,68,0.00,,,0.00,889.000000,,2013-05-01 18:32:00,
2013-05-01 13:42:00,72.0,61.0,-100.00,SE,131,10.0,17.0,68,0.00,,,0.00,889.000000,,2013-05-01 18:42:00,
2013-05-01 13:52:00,72.0,61.0,-100.00,SE,131,10.0,17.0,68,0.00,,,0.00,889.000000,,2013-05-01 18:52:00,
2013-05-01 14:02:00,72.0,61.0,-100.00,SE,131,10.0,17.0,68,0.00,,,0.00,889.000000,,2013-05-01 19:02:00,
2013-05-01 14:32:00,71.0,59.0,-100.00,SE,143,12.0,20.0,66,0.00,,,0.00,1128.000000,,2013-05-01 19:32:00,
2013-05-01 14:43:00,71.0,59.0,-100.00,SE,143,12.0,20.0,66,0.00,,,0.00,1128.000000,,2013-05-01 19:43:00,
2013-05-01 14:52:00,71.0,59.0,-100.00,SE,143,12.0,20.0,66,0.00,,,0.00,1128.000000,,2013-05-01 19:52:00,
2013-05-01 15:01:00,71.0,59.0,-100.00,SE,143,12.0,20.0,66,0.00,,,0.00,1128.000000,,2013-05-01 20:01:00,
2013-05-01 15:32:00,69.0,58.0,-100.00,SE,142,11.0,19.0,69,0.00,,,0.00,484.000000,,2013-05-01 20:32:00,
2013-05-01 15:42:00,69.0,58.0,-100.00,SE,142,11.0,19.0,69,0.00,,,0.00,484.000000,,2013-05-01 20:42:00,
2013-05-01 15:52:00,69.0,58.0,-100.00,SE,142,11.0,19.0,69,0.00,,,0.00,484.000000,,2013-05-01 20:52:00,
2013-05-01 16:01:00,69.0,58.0,-100.00,SE,142,11.0,19.0,69,0.00,,,0.00,484.000000,,2013-05-01 21:01:00,
2013-05-01 16:32:00,71.0,62.0,-100.00,SE,131,11.0,19.0,73,0.00,,,0.00,621.000000,,2013-05-01 21:32:00,
2013-05-01 16:43:00,71.0,62.0,-100.00,SE,131,11.0,19.0,73,0.00,,,0.00,621.000000,,2013-05-01 21:43:00,
2013-05-01 16:53:00,71.0,62.0,-100.00,SE,131,11.0,19.0,73,0.00,,,0.00,621.000000,,2013-05-01 21:53:00,
2013-05-01 17:03:00,71.0,62.0,-100.00,SE,131,11.0,19.0,73,0.00,,,0.00,621.000000,,2013-05-01 22:03:00,
2013-05-01 17:33:00,69.0,59.0,-100.00,ESE,121,9.0,19.0,70,0.00,,,0.00,611.000000,,2013-05-01 22:33:00,
2013-05-01 17:42:00,69.0,59.0,-100.00,ESE,121,9.0,19.0,70,0.00,,,0.00,611.000000,,2013-05-01 22:42:00,
2013-05-01 17:53:00,69.0,59.0,-100.00,ESE,121,9.0,19.0,70,0.00,,,0.00,611.000000,,2013-05-01 22:53:00,
2013-05-01 18:02:00,69.0,59.0,-100.00,ESE,121,9.0,19.0,70,0.00,,,0.00,611.000000,,2013-05-01 23:02:00,
2013-05-01 18:32:00,67.0,56.0,-100.00,SE,124,11.0,18.0,69,0.00,,,0.00,499.000000,,2013-05-01 23:32:00,
2013-05-01 18:42:00,67.0,56.0,-100.00,SE,124,11.0,18.0,69,0.00,,,0.00,499.000000,,2013-05-01 23:42:00,
2013-05-01 18:52:00,67.0,56.0,-100.00,SE,124,11.0,18.0,69,0.00,,,0.00,499.000000,,2013-05-01 23:52:00,
2013-05-01 19:01:00,67.0,56.0,-100.00,SE,124,11.0,18.0,69,0.00,,,0.00,499.000000,,2013-05-02 00:01:00,
2013-05-01 20:32:00,63.0,59.0,-100.00,SE,127,10.0,15.0,87,-99.99,,,0.00,57.000000,,2013-05-02 01:32:00,
2013-05-01 20:42:00,63.0,59.0,-100.00,SE,127,10.0,15.0,87,-99.99,,,0.00,57.000000,,2013-05-02 01:42:00,
2013-05-01 20:52:00,63.0,59.0,-100.00,SE,127,10.0,15.0,87,-99.99,,,0.00,57.000000,,2013-05-02 01:52:00,
2013-05-01 21:02:00,63.0,59.0,-100.00,SE,127,10.0,15.0,87,-99.99,,,0.00,57.000000,,2013-05-02 02:02:00,
2013-05-01 21:32:00,63.0,62.0,-100.00,SE,131,12.0,17.0,96,0.00,,,0.00,0.000000,,2013-05-02 02:32:00,
2013-05-01 21:42:00,63.0,62.0,-100.00,SE,131,12.0,17.0,96,0.00,,,0.00,0.000000,,2013-05-02 02:42:00,
2013-05-01 21:51:00,63.0,62.0,-100.00,SE,131,12.0,17.0,96,0.00,,,0.00,0.000000,,2013-05-02 02:51:00,
2013-05-01 22:01:00,63.0,62.0,-100.00,SE,131,12.0,17.0,96,0.00,,,0.00,0.000000,,2013-05-02 03:01:00,
2013-05-01 22:33:00,61.0,60.0,-100.00,SE,138,8.0,17.0,98,0.00,,,0.00,0.000000,,2013-05-02 03:33:00,
2013-05-01 22:43:00,61.0,60.0,-100.00,SE,138,8.0,17.0,98,0.00,,,0.00,0.000000,,2013-05-02 03:43:00,
2013-05-01 22:53:00,61.0,60.0,-100.00,SE,138,8.0,17.0,98,0.00,,,0.00,0.000000,,2013-05-02 03:53:00,
2013-05-01 23:03:00,61.0,60.0,-100.00,SE,138,8.0,17.0,98,0.00,,,0.00,0.000000,,2013-05-02 04:03:00,
2013-05-01 23:33:00,61.0,61.0,-100.00,SE,141,7.0,14.0,100,0.00,,,0.00,0.000000,,2013-05-02 04:33:00,
2013-05-01 23:43:00,61.0,61.0,-100.00,SE,141,7.0,14.0,100,0.00,,,0.00,0.000000,,2013-05-02 04:43:00,
2013-05-01 23:52:00,61.0,61.0,-100.00,SE,141,7.0,14.0,100,0.00,,,0.00,0.000000,,2013-05-02 04:52:00,